Terminal Aerodrome Forecast
Issued by NWS Cleveland, OH

Home | Current Version | Previous Version | Graphics & Text | Print | Product List | Glossary On
Versions: 1 2 3 4 5 6 7 8 9 10 11 12 13 14 15 16 17 18
000
FTUS41 KCLE 270900 AAA
TAFTOL
TAF AMD
KTOL 270902Z 2709/2806 36003KT P6SM FEW015 SCT120
      TEMPO 2710/2714 4SM BR
     FM271800 34010KT P6SM SCT025
     FM280400 32003KT P6SM SKC=

USA.gov is the U.S. government's official web portal to all federal, state and local government web resources and services.